Time;durP1;ratioP1;P1;durP2;ratioP2;P2;SDS_P1;SDS_P2;PMS_P1;PMS_P2;Temp;Humidity;BMP_temperature;BMP_pressure;BME280_temperature;BME280_humidity;BME280_pressure;Samples;Min_cycle;Max_cycle;Signal;HPM_P1;HPM_P2
2021/12/02 00:01:43;;;;;;;9.20;4.60;;;;;;;6.47;72.95;96424.59;105177;1324;23197;-81
2021/12/02 00:04:10;;;;;;;10.30;4.30;;;;;;;6.46;72.78;96428.45;105190;1325;22706;-79
2021/12/02 00:06:38;;;;;;;10.80;4.80;;;;;;;6.41;72.80;96428.34;105150;1325;22729;-81
2021/12/02 00:09:05;;;;;;;8.10;3.50;;;;;;;6.41;72.66;96424.73;105125;1325;22586;-76
2021/12/02 00:11:32;;;;;;;8.20;3.90;;;;;;;6.44;72.66;96433.41;105125;1323;27634;-79
2021/12/02 00:14:05;;;;;;;10.20;4.10;;;;;;;6.46;73.22;96430.89;105174;1323;22587;-75
2021/12/02 00:22:15;;;;;;;9.60;4.00;;;;;;;6.42;72.82;96446.45;105125;1324;22852;-78
2021/12/02 00:24:47;;;;;;;8.70;4.10;;;;;;;6.40;72.93;96446.41;105118;1324;22595;-80
2021/12/02 00:27:17;;;;;;;8.50;4.10;;;;;;;6.38;72.77;96446.37;105154;1324;22658;-80
2021/12/02 00:29:46;;;;;;;11.10;4.00;;;;;;;6.43;72.84;96445.50;105159;1325;23116;-80
2021/12/02 00:32:13;;;;;;;17.10;4.30;;;;;;;6.49;73.16;96444.66;105205;1325;25296;-78
2021/12/02 00:34:45;;;;;;;8.10;4.20;;;;;;;6.51;73.59;96442.04;105190;1325;22652;-82
2021/12/02 00:37:13;;;;;;;8.40;3.60;;;;;;;6.48;73.20;96436.73;105187;1324;22984;-77
2021/12/02 00:39:40;;;;;;;8.70;4.10;;;;;;;6.49;72.93;96429.21;105140;1324;24392;-78
2021/12/02 00:42:10;;;;;;;7.80;4.20;;;;;;;6.48;72.84;96432.62;105171;1325;23901;-78
2021/12/02 00:44:38;;;;;;;8.50;4.00;;;;;;;6.45;72.91;96435.44;105148;1325;25786;-75
2021/12/02 00:47:05;;;;;;;7.20;2.80;;;;;;;6.46;72.88;96442.63;105109;1325;22726;-75
2021/12/02 00:49:32;;;;;;;7.60;3.50;;;;;;;6.54;72.74;96446.82;105073;1324;22618;-75
2021/12/02 00:52:01;;;;;;;7.80;3.10;;;;;;;6.55;72.91;96447.27;105081;1325;22699;-75
2021/12/02 00:54:30;;;;;;;6.80;3.70;;;;;;;6.57;72.68;96455.31;105149;1324;22667;-75
2021/12/02 00:57:01;;;;;;;6.90;3.30;;;;;;;6.53;72.90;96461.42;105207;1325;22592;-75
2021/12/02 00:59:29;;;;;;;12.20;4.00;;;;;;;6.53;72.64;96467.11;105135;1325;22593;-79
2021/12/02 01:01:58;;;;;;;6.60;3.10;;;;;;;6.51;72.39;96458.29;105205;1324;22709;-82
2021/12/02 01:04:26;;;;;;;7.60;3.00;;;;;;;6.53;72.45;96452.91;105157;1325;22584;-76
2021/12/02 01:06:54;;;;;;;6.60;3.10;;;;;;;6.58;72.66;96450.99;105219;1323;25455;-82
2021/12/02 01:09:21;;;;;;;7.80;2.80;;;;;;;6.58;72.81;96447.70;105205;1325;22589;-79
2021/12/02 01:11:48;;;;;;;7.70;4.00;;;;;;;6.55;72.60;96441.50;105014;1325;22593;-78
2021/12/02 01:14:16;;;;;;;7.10;3.20;;;;;;;6.53;72.67;96448.29;105118;1323;25343;-76
2021/12/02 01:16:43;;;;;;;6.90;3.70;;;;;;;6.51;72.41;96445.13;105051;1325;22564;-76
2021/12/02 01:19:11;;;;;;;7.00;3.10;;;;;;;6.49;72.44;96446.17;105066;1324;22571;-76
2021/12/02 01:21:42;;;;;;;6.50;3.20;;;;;;;6.50;72.55;96446.59;105057;1324;23337;-77
2021/12/02 01:24:13;;;;;;;5.50;3.00;;;;;;;6.52;72.92;96450.27;105066;1325;25533;-76
2021/12/02 01:26:41;;;;;;;6.90;3.20;;;;;;;6.48;73.03;96451.45;105047;1324;22677;-75
2021/12/02 01:29:12;;;;;;;6.70;3.30;;;;;;;6.44;72.89;96446.79;105157;1320;25986;-82
2021/12/02 01:31:41;;;;;;;6.90;3.20;;;;;;;6.40;72.89;96442.08;105210;1325;26183;-81
2021/12/02 01:34:08;;;;;;;5.90;2.30;;;;;;;6.35;72.83;96434.73;105196;1325;23152;-81
2021/12/02 01:36:40;;;;;;;6.70;3.10;;;;;;;6.37;72.64;96432.14;105184;1325;22613;-81
2021/12/02 01:39:08;;;;;;;7.30;3.10;;;;;;;6.35;72.97;96436.62;105164;1325;22593;-82
2021/12/02 01:41:46;;;;;;;5.90;2.70;;;;;;;6.35;73.29;96435.67;105411;1325;22729;-81
2021/12/02 01:44:18;;;;;;;8.10;3.30;;;;;;;6.30;73.53;96443.23;105176;1324;22591;-76
2021/12/02 01:46:51;;;;;;;7.20;2.80;;;;;;;6.25;73.35;96436.73;105062;1325;22729;-76
2021/12/02 01:49:22;;;;;;;6.80;3.30;;;;;;;6.22;73.19;96441.52;105104;1325;22631;-75
2021/12/02 01:51:52;;;;;;;6.50;2.70;;;;;;;6.18;73.04;96442.91;105126;1325;25539;-75
2021/12/02 01:54:21;;;;;;;7.70;3.40;;;;;;;6.15;73.26;96443.82;105153;1325;24311;-75
2021/12/02 01:57:05;;;;;;;7.20;3.40;;;;;;;6.14;73.47;96446.62;105133;1325;22785;-75
2021/12/02 01:59:36;;;;;;;6.90;2.90;;;;;;;6.14;73.82;96448.18;105088;1325;22733;-75
2021/12/02 02:02:07;;;;;;;7.00;3.40;;;;;;;6.11;73.99;96451.24;105013;1325;22713;-75
2021/12/02 02:04:34;;;;;;;8.00;3.40;;;;;;;6.05;73.81;96457.90;105071;1325;22659;-75
2021/12/02 02:07:11;;;;;;;7.20;3.10;;;;;;;6.04;73.62;96459.71;105060;1325;25691;-76
2021/12/02 02:09:39;;;;;;;5.60;2.80;;;;;;;6.01;73.68;96456.19;105117;1325;22582;-77
2021/12/02 02:12:09;;;;;;;6.00;3.10;;;;;;;5.99;73.46;96459.29;105110;1325;22674;-75
2021/12/02 02:14:38;;;;;;;6.40;2.90;;;;;;;5.99;73.71;96460.98;105114;1322;26250;-83
2021/12/02 02:17:14;;;;;;;5.20;2.60;;;;;;;6.02;73.99;96457.83;105142;1325;23417;-79
2021/12/02 02:19:41;;;;;;;6.70;2.90;;;;;;;6.05;74.11;96457.41;105144;1322;25450;-79
2021/12/02 02:22:08;;;;;;;7.50;3.00;;;;;;;6.04;74.17;96461.65;105180;1324;22632;-81
2021/12/02 02:24:35;;;;;;;6.40;2.60;;;;;;;6.00;74.20;96461.64;105136;1324;25377;-79
2021/12/02 02:27:03;;;;;;;5.20;2.50;;;;;;;6.00;74.00;96463.52;105216;1324;22583;-81
2021/12/02 02:29:30;;;;;;;4.50;2.10;;;;;;;6.01;73.82;96465.51;105162;1325;22591;-81
2021/12/02 02:31:57;;;;;;;6.40;2.70;;;;;;;6.03;73.70;96467.23;105178;1324;22630;-82
2021/12/02 02:34:25;;;;;;;4.90;2.10;;;;;;;6.04;73.69;96465.94;105193;1325;22598;-80
2021/12/02 02:36:55;;;;;;;5.40;2.60;;;;;;;6.08;74.14;96464.58;105097;1322;22584;-81
2021/12/02 02:39:22;;;;;;;5.60;2.30;;;;;;;6.10;74.18;96465.45;105124;1325;23386;-81
2021/12/02 02:42:01;;;;;;;5.10;2.50;;;;;;;6.06;73.95;96473.60;105324;1325;22588;-83
2021/12/02 02:44:31;;;;;;;5.60;2.30;;;;;;;6.05;73.73;96478.18;105130;1325;22652;-81
2021/12/02 02:46:58;;;;;;;6.50;2.50;;;;;;;6.04;73.75;96471.85;105115;1325;22652;-81
2021/12/02 02:49:26;;;;;;;4.90;2.40;;;;;;;6.02;73.60;96467.48;105168;1324;22661;-82
2021/12/02 02:51:53;;;;;;;7.60;2.50;;;;;;;5.98;73.59;96460.60;105178;1324;22737;-81
2021/12/02 02:54:22;;;;;;;4.20;2.20;;;;;;;6.00;73.88;96456.95;105189;1322;22605;-79
2021/12/02 02:57:07;;;;;;;5.80;2.50;;;;;;;6.01;74.33;96463.25;105175;1325;25418;-79
2021/12/02 03:07:35;;;;;;;5.60;2.30;;;;;;;5.89;73.85;96472.55;105114;1325;22645;-75
2021/12/02 03:10:27;;;;;;;8.10;3.10;;;;;;;5.86;73.75;96474.63;105104;1325;25606;-80
2021/12/02 03:13:00;;;;;;;5.50;2.50;;;;;;;5.91;73.51;96474.98;105214;1325;22682;-82
2021/12/02 03:18:17;;;;;;;4.90;2.30;;;;;;;5.92;74.06;96470.38;105104;1325;22719;-77
2021/12/02 03:20:44;;;;;;;5.10;2.60;;;;;;;5.92;74.29;96469.52;105174;1324;22597;-78
2021/12/02 03:23:11;;;;;;;6.00;2.90;;;;;;;5.90;74.02;96473.48;105127;1324;22631;-83
2021/12/02 03:25:38;;;;;;;8.20;3.30;;;;;;;5.88;73.95;96470.55;105099;1325;22585;-80
2021/12/02 03:28:05;;;;;;;7.30;3.00;;;;;;;5.85;73.80;96479.87;105018;1324;22612;-81
2021/12/02 03:30:32;;;;;;;5.80;2.80;;;;;;;5.83;73.92;96478.50;105225;1325;22681;-82
2021/12/02 03:32:59;;;;;;;4.80;2.40;;;;;;;5.85;73.75;96482.02;105386;1324;22678;-83
2021/12/02 03:35:26;;;;;;;6.00;3.20;;;;;;;5.90;74.08;96475.39;105402;1325;22668;-83
2021/12/02 03:37:53;;;;;;;5.40;2.70;;;;;;;5.92;74.33;96471.28;105438;1324;25517;-82
2021/12/02 03:40:20;;;;;;;6.90;3.20;;;;;;;5.96;74.11;96476.12;105407;1323;22729;-81
2021/12/02 03:42:51;;;;;;;7.30;3.20;;;;;;;5.96;73.85;96477.69;105434;1325;22595;-79
2021/12/02 03:45:18;;;;;;;6.60;2.70;;;;;;;5.90;73.81;96486.74;105427;1325;22654;-77
2021/12/02 03:47:45;;;;;;;7.80;3.40;;;;;;;5.89;73.45;96484.41;105397;1325;22605;-76
2021/12/02 03:50:13;;;;;;;9.50;3.70;;;;;;;5.87;73.47;96492.39;105369;1324;22595;-77
2021/12/02 03:52:40;;;;;;;12.70;5.20;;;;;;;5.86;73.32;96491.77;105411;1325;24376;-76
2021/12/02 03:55:07;;;;;;;8.10;4.10;;;;;;;5.88;73.51;96501.10;105416;1325;22723;-77
2021/12/02 03:57:34;;;;;;;8.30;3.80;;;;;;;5.92;73.58;96503.70;105384;1317;22584;-75
2021/12/02 04:00:03;;;;;;;10.10;4.00;;;;;;;5.93;73.52;96503.31;105422;1325;25394;-81
2021/12/02 04:02:30;;;;;;;9.90;4.90;;;;;;;5.90;73.38;96504.96;105416;1325;22722;-83
2021/12/02 04:04:57;;;;;;;10.90;4.70;;;;;;;5.87;73.30;96509.63;105448;1325;22587;-77
2021/12/02 04:07:26;;;;;;;8.90;3.60;;;;;;;5.85;73.27;96506.65;105432;1325;22580;-80
2021/12/02 04:09:54;;;;;;;7.90;3.00;;;;;;;5.83;73.22;96502.48;105457;1325;22588;-78
2021/12/02 04:15:06;;;;;;;9.50;3.50;;;;;;;5.89;73.39;96508.83;105460;1325;24245;-79
2021/12/02 04:17:43;;;;;;;7.30;3.20;;;;;;;5.91;73.65;96506.58;105450;1325;22644;-79
2021/12/02 04:20:12;;;;;;;9.40;3.20;;;;;;;5.91;73.90;96508.31;105414;1325;22673;-81
2021/12/02 04:22:40;;;;;;;9.80;3.70;;;;;;;5.91;73.52;96512.77;105435;1324;24253;-79
2021/12/02 04:25:08;;;;;;;9.90;4.00;;;;;;;5.88;73.41;96517.36;105438;1325;22613;-81
2021/12/02 04:27:35;;;;;;;11.10;4.60;;;;;;;5.88;73.21;96522.55;105428;1322;22718;-77
2021/12/02 04:30:09;;;;;;;9.10;4.00;;;;;;;5.84;73.18;96526.58;105459;1325;22592;-79
2021/12/02 04:32:36;;;;;;;10.80;5.00;;;;;;;5.84;72.99;96529.38;105400;1325;22591;-77
2021/12/02 04:35:03;;;;;;;9.90;3.90;;;;;;;5.84;73.04;96532.48;105417;1325;22589;-78
2021/12/02 04:37:30;;;;;;;7.10;3.00;;;;;;;5.89;73.36;96538.55;105466;1325;22662;-76
2021/12/02 04:39:57;;;;;;;7.80;3.00;;;;;;;5.87;73.70;96537.47;105439;1325;22586;-80
2021/12/02 04:42:25;;;;;;;9.40;3.90;;;;;;;5.85;73.47;96539.33;105453;1323;22740;-77
2021/12/02 04:44:51;;;;;;;9.50;3.40;;;;;;;5.81;73.39;96542.56;105392;1324;22593;-76
2021/12/02 04:47:18;;;;;;;6.80;2.60;;;;;;;5.77;73.34;96548.23;105421;1317;22607;-76
2021/12/02 04:49:46;;;;;;;8.60;3.50;;;;;;;5.76;73.13;96552.50;105389;1325;22653;-77
2021/12/02 04:52:13;;;;;;;6.90;3.10;;;;;;;5.71;73.14;96559.10;105460;1325;22665;-76
2021/12/02 04:54:40;;;;;;;8.00;2.90;;;;;;;5.69;73.23;96557.75;105429;1325;22619;-78
2021/12/02 04:57:07;;;;;;;8.60;3.50;;;;;;;5.72;73.56;96564.58;105415;1324;22656;-78
2021/12/02 04:59:34;;;;;;;7.20;3.30;;;;;;;5.72;74.04;96563.03;105439;1325;25705;-81
2021/12/02 05:02:01;;;;;;;6.20;3.00;;;;;;;5.72;74.39;96565.41;105433;1325;22614;-78
2021/12/02 05:04:28;;;;;;;8.80;3.70;;;;;;;5.69;74.33;96565.28;105415;1324;22738;-77
2021/12/02 05:06:55;;;;;;;8.80;3.70;;;;;;;5.66;74.05;96566.52;105445;1325;22715;-77
2021/12/02 05:09:22;;;;;;;7.20;3.10;;;;;;;5.63;74.00;96566.74;105440;1325;22901;-77
2021/12/02 05:11:49;;;;;;;7.50;3.20;;;;;;;5.62;73.74;96563.60;105412;1324;22583;-78
2021/12/02 05:14:16;;;;;;;9.70;3.50;;;;;;;5.58;73.87;96563.35;105422;1324;22612;-80
2021/12/02 05:16:44;;;;;;;10.70;4.10;;;;;;;5.57;73.50;96564.46;105446;1325;22655;-80
2021/12/02 05:19:11;;;;;;;8.70;3.40;;;;;;;5.55;73.48;96563.29;105460;1325;22594;-82
2021/12/02 05:21:38;;;;;;;8.40;3.80;;;;;;;5.57;73.86;96565.02;105398;1325;22650;-81
2021/12/02 05:24:05;;;;;;;8.30;3.60;;;;;;;5.59;74.24;96559.52;105441;1325;22691;-77
2021/12/02 05:26:33;;;;;;;10.00;3.70;;;;;;;5.56;74.53;96561.94;105421;1324;25956;-77
2021/12/02 05:29:00;;;;;;;8.30;3.20;;;;;;;5.52;74.39;96569.38;105395;1325;22602;-75
2021/12/02 05:31:27;;;;;;;7.90;3.50;;;;;;;5.49;74.10;96565.48;105436;1325;22620;-78
2021/12/02 05:33:54;;;;;;;7.50;3.50;;;;;;;5.43;73.88;96562.85;105486;1325;22654;-76
2021/12/02 05:36:21;;;;;;;7.90;3.50;;;;;;;5.40;73.81;96558.25;105448;1325;22570;-81
2021/12/02 05:38:48;;;;;;;6.60;3.10;;;;;;;5.37;73.68;96557.60;105419;1325;22596;-78
2021/12/02 05:41:16;;;;;;;8.70;3.10;;;;;;;5.34;73.67;96552.81;105429;1325;22666;-76
2021/12/02 05:43:43;;;;;;;8.80;3.60;;;;;;;5.35;74.02;96555.33;105431;1325;22656;-77
2021/12/02 05:46:10;;;;;;;6.90;3.40;;;;;;;5.36;74.25;96560.79;105415;1325;22705;-77
2021/12/02 05:48:40;;;;;;;8.00;3.10;;;;;;;5.35;74.55;96561.55;105456;1325;22637;-78
2021/12/02 05:51:07;;;;;;;8.80;3.60;;;;;;;5.30;74.39;96565.21;105420;1325;25874;-76
2021/12/02 05:53:34;;;;;;;7.00;3.50;;;;;;;5.28;74.29;96569.64;105452;1325;22592;-77
2021/12/02 05:56:02;;;;;;;6.90;3.50;;;;;;;5.26;74.01;96569.46;105397;1325;22721;-78
2021/12/02 05:58:29;;;;;;;7.60;3.30;;;;;;;5.23;73.90;96569.21;105437;1325;24209;-79
2021/12/02 06:00:56;;;;;;;7.00;3.00;;;;;;;5.18;73.58;96569.71;105420;1325;25672;-81
2021/12/02 06:03:23;;;;;;;5.80;2.30;;;;;;;5.15;73.27;96573.64;105458;1325;22658;-77
2021/12/02 06:05:50;;;;;;;5.70;2.70;;;;;;;5.13;73.21;96572.59;105442;1325;22657;-76
2021/12/02 06:08:17;;;;;;;5.20;2.00;;;;;;;5.13;73.38;96569.25;105428;1323;22764;-78
2021/12/02 06:10:45;;;;;;;6.20;2.60;;;;;;;5.12;73.79;96577.95;105442;1323;22595;-79
2021/12/02 06:13:12;;;;;;;8.70;2.90;;;;;;;5.08;73.87;96583.12;105391;1322;22727;-81
2021/12/02 06:15:39;;;;;;;7.20;3.00;;;;;;;5.05;73.90;96596.11;105418;1322;22664;-80
2021/12/02 06:18:06;;;;;;;11.60;3.80;;;;;;;5.02;73.60;96603.55;105438;1325;22652;-77
2021/12/02 06:20:33;;;;;;;10.60;4.20;;;;;;;5.01;73.39;96604.71;105447;1325;25690;-77
2021/12/02 06:23:00;;;;;;;11.30;5.00;;;;;;;4.99;73.30;96600.36;105384;1322;22592;-78
2021/12/02 06:27:56;;;;;;;15.50;6.30;;;;;;;4.96;73.01;96605.61;105421;1325;22594;-79
2021/12/02 06:30:25;;;;;;;19.20;7.40;;;;;;;4.94;73.01;96612.61;105446;1325;22649;-80
2021/12/02 06:32:53;;;;;;;13.10;5.90;;;;;;;4.93;73.19;96618.40;105413;1325;22691;-80
2021/12/02 06:35:20;;;;;;;12.50;5.60;;;;;;;4.96;73.54;96620.41;105410;1325;22599;-78
2021/12/02 06:37:48;;;;;;;12.70;5.10;;;;;;;5.00;73.65;96621.34;105379;1325;22583;-75
2021/12/02 06:40:15;;;;;;;14.90;5.60;;;;;;;5.04;74.03;96625.14;105456;1324;22643;-79
2021/12/02 06:42:42;;;;;;;12.10;5.40;;;;;;;5.05;73.89;96626.27;105433;1324;22672;-78
2021/12/02 06:45:10;;;;;;;13.30;5.70;;;;;;;5.08;73.63;96628.88;105416;1325;24150;-77
2021/12/02 06:47:39;;;;;;;12.40;5.60;;;;;;;5.09;73.77;96629.61;105436;1324;22650;-78
2021/12/02 06:50:16;;;;;;;12.80;5.40;;;;;;;5.09;73.71;96628.58;105410;1325;22668;-78
2021/12/02 06:52:45;;;;;;;13.20;6.00;;;;;;;5.11;73.71;96630.35;105462;1324;24934;-76
2021/12/02 06:55:13;;;;;;;15.30;7.10;;;;;;;5.13;73.60;96627.44;105425;1324;22679;-77
2021/12/02 06:57:41;;;;;;;11.00;4.80;;;;;;;5.22;73.72;96632.75;105447;1324;25265;-76
2021/12/02 07:00:11;;;;;;;10.40;4.50;;;;;;;5.28;74.04;96629.92;105455;1325;22708;-78
2021/12/02 07:02:39;;;;;;;12.80;5.70;;;;;;;5.32;74.17;96629.45;104979;1323;641342;-81
2021/12/02 07:05:09;;;;;;;15.00;6.20;;;;;;;5.35;74.00;96628.69;105441;1322;24116;-81
2021/12/02 07:07:37;;;;;;;11.90;5.00;;;;;;;5.36;73.73;96633.96;105402;1325;22652;-83
2021/12/02 07:10:10;;;;;;;13.30;4.70;;;;;;;5.39;73.39;96638.42;105438;1322;22713;-82
2021/12/02 07:12:40;;;;;;;9.80;4.00;;;;;;;5.40;73.50;96645.05;105421;1325;22718;-82
2021/12/02 07:15:14;;;;;;;9.30;4.20;;;;;;;5.39;73.55;96654.07;105416;1325;25394;-83
2021/12/02 07:17:42;;;;;;;9.90;4.30;;;;;;;5.39;73.74;96657.73;105417;1324;22690;-82
2021/12/02 07:20:10;;;;;;;11.40;4.80;;;;;;;5.43;74.07;96657.05;105418;1324;22656;-83
2021/12/02 07:22:37;;;;;;;7.10;3.40;;;;;;;5.45;74.71;96664.33;105444;1325;22596;-76
2021/12/02 07:25:06;;;;;;;9.30;4.00;;;;;;;5.43;75.04;96667.60;105408;1323;24114;-75
2021/12/02 07:27:33;;;;;;;12.30;4.40;;;;;;;5.38;75.03;96667.96;105371;1324;22611;-80
2021/12/02 07:30:00;;;;;;;13.90;4.80;;;;;;;5.34;75.20;96672.65;105134;1325;23052;-78
2021/12/02 07:32:36;;;;;;;12.50;5.30;;;;;;;5.30;75.35;96674.63;105134;1322;22663;-77
2021/12/02 07:35:09;;;;;;;13.00;5.80;;;;;;;5.25;75.64;96679.17;105097;1324;25258;-75
2021/12/02 07:37:36;;;;;;;12.60;6.10;;;;;;;5.28;75.97;96676.45;105128;1324;22631;-74
2021/12/02 07:40:04;;;;;;;12.20;5.20;;;;;;;5.30;76.50;96674.27;105122;1322;22731;-75
2021/12/02 07:42:32;;;;;;;12.70;6.50;;;;;;;5.31;76.83;96676.09;105139;1325;22735;-78
2021/12/02 07:45:00;;;;;;;8.90;4.30;;;;;;;5.32;77.04;96679.67;105106;1325;22615;-76
2021/12/02 07:47:27;;;;;;;10.90;5.50;;;;;;;5.31;76.59;96680.05;105151;1324;22624;-75
2021/12/02 07:49:54;;;;;;;11.40;5.80;;;;;;;5.32;76.53;96679.13;105103;1324;24443;-75
2021/12/02 07:52:25;;;;;;;13.00;5.50;;;;;;;5.35;76.20;96676.56;105141;1325;22572;-75
2021/12/02 07:54:55;;;;;;;7.50;3.70;;;;;;;5.37;75.88;96683.08;105110;1322;22690;-74
2021/12/02 07:57:22;;;;;;;7.90;3.70;;;;;;;5.46;75.79;96690.64;105089;1324;22671;-78
2021/12/02 07:59:50;;;;;;;10.10;3.90;;;;;;;5.53;76.05;96697.78;105098;1324;22649;-75
2021/12/02 08:02:18;;;;;;;7.10;3.60;;;;;;;5.60;75.83;96696.55;105135;1324;25486;-75
2021/12/02 08:04:45;;;;;;;6.20;3.40;;;;;;;5.60;75.66;96700.11;105081;1324;22663;-75
2021/12/02 08:07:12;;;;;;;17.30;5.20;;;;;;;5.63;75.18;96704.52;105072;1325;22644;-77
2021/12/02 08:09:39;;;;;;;15.30;5.70;;;;;;;5.66;74.84;96706.30;105058;1325;22591;-75
2021/12/02 08:12:07;;;;;;;7.60;3.40;;;;;;;5.71;74.75;96707.81;105104;1324;22617;-76
2021/12/02 08:14:34;;;;;;;6.60;2.80;;;;;;;5.81;74.43;96706.54;105141;1325;25322;-75
2021/12/02 08:17:03;;;;;;;6.80;2.90;;;;;;;5.83;74.22;96704.06;105145;1325;22627;-81
2021/12/02 08:19:30;;;;;;;5.90;3.10;;;;;;;5.84;73.84;96703.99;105092;1325;22806;-75
2021/12/02 08:21:57;;;;;;;6.20;2.80;;;;;;;5.87;73.52;96712.95;105119;1321;24337;-73
2021/12/02 08:24:25;;;;;;;7.20;3.50;;;;;;;5.83;73.58;96719.95;105126;1322;22652;-81
2021/12/02 08:26:53;;;;;;;7.50;3.00;;;;;;;5.85;73.42;96724.14;105122;1322;23460;-76
2021/12/02 08:29:22;;;;;;;7.20;3.30;;;;;;;5.86;73.20;96727.37;105117;1325;25789;-75
2021/12/02 08:31:49;;;;;;;9.30;4.00;;;;;;;5.93;73.53;96732.94;105079;1322;26630;-75
2021/12/02 08:34:17;;;;;;;36.50;24.10;;;;;;;5.97;73.82;96734.34;105101;1324;24626;-76
2021/12/02 08:36:55;;;;;;;72.10;39.10;;;;;;;5.92;73.62;96737.48;105130;1319;22811;-75
2021/12/02 08:39:29;;;;;;;19.60;10.70;;;;;;;5.91;73.38;96737.04;105003;1325;22663;-75
2021/12/02 08:41:57;;;;;;;13.00;7.50;;;;;;;5.90;73.02;96738.44;105156;1325;22580;-75
2021/12/02 08:44:27;;;;;;;11.80;4.90;;;;;;;5.89;72.92;96740.98;105084;1325;22614;-75
2021/12/02 08:46:55;;;;;;;11.80;6.10;;;;;;;5.88;72.53;96747.42;105194;1324;25665;-87
2021/12/02 08:49:23;;;;;;;11.40;5.50;;;;;;;5.92;72.99;96755.23;104976;1325;22673;-82
2021/12/02 08:51:51;;;;;;;9.60;4.80;;;;;;;5.99;73.36;96755.95;105113;1324;22652;-84
2021/12/02 08:54:19;;;;;;;16.70;8.00;;;;;;;6.03;73.17;96760.80;105233;1324;22643;-75
2021/12/02 08:56:46;;;;;;;54.30;29.60;;;;;;;6.02;72.89;96762.04;105123;1322;22617;-92
2021/12/02 08:59:14;;;;;;;16.20;8.20;;;;;;;6.06;72.73;96767.14;105136;1322;22597;-75
2021/12/02 09:01:41;;;;;;;12.10;5.10;;;;;;;6.10;72.68;96773.06;105143;1325;25340;-86
2021/12/02 09:04:09;;;;;;;12.00;6.00;;;;;;;6.12;72.58;96775.33;105153;1322;23929;-76
2021/12/02 09:06:36;;;;;;;8.10;3.60;;;;;;;6.17;72.09;96775.11;105140;1325;22563;-80
2021/12/02 09:09:03;;;;;;;19.40;9.20;;;;;;;6.25;72.30;96772.38;105146;1325;22621;-85
2021/12/02 09:11:33;;;;;;;14.20;6.30;;;;;;;6.32;72.46;96769.95;105157;1325;22696;-86
2021/12/02 09:14:04;;;;;;;10.50;4.20;;;;;;;6.36;72.57;96775.02;105126;1324;22724;-87
2021/12/02 09:16:32;;;;;;;12.60;5.00;;;;;;;6.41;72.13;96780.33;105126;1323;22607;-82
2021/12/02 09:18:59;;;;;;;13.70;6.60;;;;;;;6.39;71.98;96786.34;105139;1325;22566;-77
2021/12/02 09:21:28;;;;;;;13.70;6.40;;;;;;;6.37;71.54;96788.21;105144;1324;22735;-75
2021/12/02 09:23:55;;;;;;;9.80;4.90;;;;;;;6.36;71.34;96787.92;105251;1325;22693;-76
2021/12/02 09:26:22;;;;;;;11.40;5.60;;;;;;;6.36;71.29;96786.58;105096;1323;23444;-83
2021/12/02 09:28:53;;;;;;;12.90;5.40;;;;;;;6.36;71.48;96788.67;105173;1325;25445;-75
2021/12/02 09:31:22;;;;;;;12.10;4.90;;;;;;;6.38;71.58;96784.53;105091;1324;22781;-76
2021/12/02 09:33:50;;;;;;;10.40;4.10;;;;;;;6.43;71.26;96786.10;105096;1319;22685;-76
2021/12/02 09:36:17;;;;;;;10.20;4.60;;;;;;;6.49;71.90;96782.87;105137;1323;22595;-77
2021/12/02 09:38:46;;;;;;;9.70;4.80;;;;;;;6.57;71.94;96781.88;104990;1325;22598;-80
2021/12/02 09:41:13;;;;;;;10.80;5.60;;;;;;;6.59;71.30;96784.63;105234;1325;24145;-80
2021/12/02 09:43:40;;;;;;;10.50;4.70;;;;;;;6.61;70.92;96787.27;105430;1324;22869;-88
2021/12/02 09:46:08;;;;;;;13.00;5.50;;;;;;;6.60;70.60;96788.23;105357;1324;22670;-88
2021/12/02 09:48:37;;;;;;;9.10;3.90;;;;;;;6.61;70.43;96788.61;105314;1321;22614;-89
2021/12/02 09:51:10;;;;;;;7.70;3.70;;;;;;;6.63;70.06;96792.14;105238;1325;22671;-83
2021/12/02 09:53:51;;;;;;;9.10;3.60;;;;;;;6.62;70.13;96792.89;105235;1321;22629;-83
2021/12/02 09:56:25;;;;;;;7.80;3.40;;;;;;;6.63;69.80;96792.77;105214;1325;24117;-85
2021/12/02 09:58:56;;;;;;;7.60;3.40;;;;;;;6.72;69.67;96786.17;105293;1324;23040;-90
2021/12/02 10:01:30;;;;;;;8.00;3.50;;;;;;;6.75;70.06;96787.11;105367;1324;22681;-76
2021/12/02 10:04:02;;;;;;;11.10;4.20;;;;;;;6.77;69.96;96788.17;105394;1325;25382;-76
2021/12/02 10:06:31;;;;;;;6.40;2.80;;;;;;;6.82;69.47;96786.45;105416;1324;22583;-76
2021/12/02 10:09:17;;;;;;;7.10;2.70;;;;;;;6.83;68.85;96781.16;105407;1322;22787;-85
2021/12/02 10:11:53;;;;;;;8.30;3.30;;;;;;;6.81;68.65;96779.47;105406;1325;22587;-75
2021/12/02 10:18:05;;;;;;;9.40;3.10;;;;;;;6.84;68.36;96782.01;105407;1325;24232;-75
2021/12/02 10:23:21;;;;;;;7.80;3.10;;;;;;;6.92;68.11;96780.95;105428;1324;25117;-75
2021/12/02 10:25:49;;;;;;;10.90;4.60;;;;;;;6.93;67.16;96782.77;105406;1324;22587;-79
2021/12/02 10:28:19;;;;;;;36.40;13.90;;;;;;;6.94;67.75;96786.02;105441;1324;23943;-80
2021/12/02 10:30:49;;;;;;;21.80;8.10;;;;;;;7.00;68.53;96783.09;105446;1325;22602;-91
2021/12/02 10:33:31;;;;;;;30.90;9.40;;;;;;;7.10;68.21;96780.40;105412;1325;24165;-90
2021/12/02 10:35:58;;;;;;;23.60;11.00;;;;;;;7.04;67.74;96787.44;105410;1324;22588;-87
2021/12/02 10:38:52;;;;;;;28.80;11.30;;;;;;;7.03;67.23;96786.64;105435;1324;24689;-77
2021/12/02 10:41:22;;;;;;;44.10;18.00;;;;;;;7.03;67.33;96786.48;105412;1324;22672;-79
2021/12/02 10:44:15;;;;;;;43.10;19.60;;;;;;;7.06;66.90;96788.20;105423;1324;22737;-80
2021/12/02 10:47:00;;;;;;;103.60;46.20;;;;;;;7.06;66.99;96788.85;105431;1324;22607;-84
2021/12/02 10:49:32;;;;;;;60.00;30.20;;;;;;;7.08;66.52;96790.08;105419;1325;22640;-76
2021/12/02 10:52:03;;;;;;;12.30;5.60;;;;;;;7.09;66.42;96785.96;105456;1322;24011;-89
2021/12/02 10:54:35;;;;;;;30.70;13.40;;;;;;;7.11;66.60;96782.73;105423;1322;22601;-76
2021/12/02 10:57:10;;;;;;;19.90;9.90;;;;;;;7.13;66.15;96782.00;105432;1324;26589;-76
2021/12/02 10:59:42;;;;;;;57.50;26.90;;;;;;;7.11;66.00;96782.88;105387;1322;22609;-80
2021/12/02 11:02:17;;;;;;;25.60;11.90;;;;;;;7.12;66.52;96781.98;105419;1325;25705;-76
2021/12/02 11:04:55;;;;;;;20.00;9.70;;;;;;;7.16;66.11;96783.21;105429;1322;22651;-76
2021/12/02 11:07:39;;;;;;;11.40;6.00;;;;;;;7.19;65.33;96785.23;105449;1324;22593;-79
2021/12/02 11:10:11;;;;;;;22.50;11.60;;;;;;;7.23;65.91;96785.61;105434;1319;22624;-75
2021/12/02 11:12:41;;;;;;;8.90;4.90;;;;;;;7.28;65.49;96781.05;105452;1325;22652;-77
2021/12/02 11:15:11;;;;;;;8.30;3.60;;;;;;;7.23;64.62;96779.35;105434;1325;22608;-75
2021/12/02 11:18:03;;;;;;;7.60;3.40;;;;;;;7.22;64.19;96777.55;105408;1324;23967;-76
2021/12/02 11:20:44;;;;;;;8.60;4.60;;;;;;;7.17;64.39;96778.73;105457;1324;22584;-85
2021/12/02 11:23:14;;;;;;;10.20;4.40;;;;;;;7.18;64.22;96775.79;105430;1325;22940;-75
2021/12/02 11:26:02;;;;;;;9.70;3.60;;;;;;;7.15;63.67;96770.98;105453;1325;22817;-75
2021/12/02 11:28:36;;;;;;;7.80;3.50;;;;;;;7.09;63.88;96772.48;105423;1325;26548;-75
2021/12/02 11:31:18;;;;;;;10.40;4.40;;;;;;;7.06;63.69;96773.41;105437;1324;22652;-83
2021/12/02 11:33:47;;;;;;;7.70;3.60;;;;;;;6.98;63.34;96775.98;105416;1325;22659;-81
2021/12/02 11:36:19;;;;;;;11.70;4.70;;;;;;;6.91;63.57;96778.77;105420;1325;22592;-75
2021/12/02 11:38:47;;;;;;;9.00;3.90;;;;;;;6.90;63.58;96781.48;105432;1325;22743;-75
2021/12/02 11:41:17;;;;;;;9.10;3.30;;;;;;;6.84;63.65;96786.16;105456;1324;22677;-79
2021/12/02 11:43:45;;;;;;;7.10;3.10;;;;;;;6.79;63.43;96790.70;105451;1325;22688;-87
2021/12/02 11:46:12;;;;;;;10.10;4.10;;;;;;;6.70;63.54;96791.91;105426;1324;24213;-88
2021/12/02 11:48:42;;;;;;;8.70;3.40;;;;;;;6.64;63.63;96792.17;105435;1322;22782;-87
2021/12/02 11:51:12;;;;;;;7.30;3.10;;;;;;;6.54;63.95;96793.02;105445;1324;22591;-80
2021/12/02 11:53:40;;;;;;;6.80;3.20;;;;;;;6.44;64.14;96791.21;105424;1324;22581;-82
2021/12/02 11:56:13;;;;;;;8.70;3.20;;;;;;;6.42;64.66;96790.14;105444;1325;22659;-76
2021/12/02 11:58:41;;;;;;;9.20;4.20;;;;;;;6.39;64.73;96791.84;105450;1324;23108;-76
2021/12/02 12:01:18;;;;;;;11.10;5.10;;;;;;;6.35;64.97;96789.98;105409;1324;22620;-76
2021/12/02 12:04:03;;;;;;;10.10;4.80;;;;;;;6.35;64.82;96794.62;105435;1325;24433;-76
2021/12/02 12:06:33;;;;;;;11.30;4.60;;;;;;;6.33;65.36;96795.51;105433;1323;22592;-76
2021/12/02 12:09:09;;;;;;;43.40;14.40;;;;;;;6.34;66.04;96793.52;105438;1324;22592;-82